Lawndale, California
Current Conditions -  °F | °C
As of 2:53 AM on Wednesday 26 Nov 2014 (Local Time) from KHHR Reporting Station
Clear Clear  
Wind Chill: 55°   Ceiling: Unl
Heat Index: 55°   Visibility: 10mi
Dew Point: 33°   Wind: 0mph
Humidity: 43%   Direction: NA
Pressure: 30.23"   Gusts: NA
Location:  33.9°N, 118.35°W
Report Text: KHHR 261053Z AUTO 00000KT 10SM CLR 13/01 A3023 RMK AO2 SLP236 T01280006
Loading
Personal Weather Stations






























Interactive Weather Map New forecast layout! Learn more

10-Day Weather Forecast

Advertisements
Track Severe Weather on mobile